createdAt,value
2023-01-15T00:00:17.878Z,26.17
2023-01-15T00:00:49.570Z,26.73
2023-01-15T00:01:34.615Z,26.48
2023-01-15T00:02:07.120Z,25.08
2023-01-15T00:02:38.706Z,26.83
2023-01-15T00:03:10.280Z,25.30
2023-01-15T00:03:41.873Z,25.42
2023-01-15T00:04:13.902Z,25.45
2023-01-15T00:04:45.462Z,25.25
2023-01-15T00:05:17.111Z,25.55
2023-01-15T00:05:48.683Z,26.13
2023-01-15T00:06:21.249Z,25.77
2023-01-15T00:06:54.569Z,25.23
2023-01-15T00:07:26.221Z,26.33
2023-01-15T00:07:57.827Z,25.38
2023-01-15T00:08:29.722Z,25.33
2023-01-15T00:09:01.371Z,27.95
2023-01-15T00:09:33.127Z,26.95
2023-01-15T00:10:05.213Z,26.48
2023-01-15T00:10:36.817Z,26.00
2023-01-15T00:11:08.470Z,23.90
2023-01-15T00:11:40.090Z,24.77
2023-01-15T00:12:11.707Z,24.35
2023-01-15T00:12:43.387Z,25.10
2023-01-15T00:13:15.033Z,24.15
2023-01-15T00:13:47.433Z,25.52
2023-01-15T00:14:19.029Z,24.50
2023-01-15T00:14:50.624Z,25.65
2023-01-15T00:15:22.256Z,25.13
2023-01-15T00:15:53.801Z,24.75
2023-01-15T00:16:26.504Z,25.40
2023-01-15T00:16:58.107Z,25.27
2023-01-15T00:17:29.675Z,25.40
2023-01-15T00:18:01.271Z,26.83
2023-01-15T00:18:32.989Z,26.00
2023-01-15T00:19:04.728Z,25.73
2023-01-15T00:19:36.349Z,25.65
2023-01-15T00:20:08.824Z,26.25
2023-01-15T00:20:40.374Z,24.58
2023-01-15T00:21:13.793Z,25.75
2023-01-15T00:21:45.431Z,25.33
2023-01-15T00:22:17.005Z,25.80
2023-01-15T00:22:48.559Z,26.55
2023-01-15T00:23:40.116Z,26.48
2023-01-15T00:24:30.091Z,25.25
2023-01-15T00:25:19.859Z,23.88
2023-01-15T00:26:09.758Z,24.63
2023-01-15T00:27:00.129Z,23.40
2023-01-15T00:27:40.836Z,24.15
2023-01-15T00:28:15.505Z,23.50
2023-01-15T00:28:48.781Z,24.27
2023-01-15T00:29:21.376Z,25.83
2023-01-15T00:29:52.917Z,27.17
2023-01-15T00:30:24.957Z,27.40
2023-01-15T00:30:56.585Z,25.42
2023-01-15T00:31:29.608Z,26.23
2023-01-15T00:32:05.759Z,25.13
2023-01-15T00:32:37.303Z,24.92
2023-01-15T00:33:09.942Z,25.50
2023-01-15T00:33:41.522Z,26.40
2023-01-15T00:34:13.156Z,25.65
2023-01-15T00:34:44.699Z,26.25
2023-01-15T00:35:19.178Z,25.88
2023-01-15T00:35:50.786Z,26.77
2023-01-15T00:36:22.638Z,25.35
2023-01-15T00:36:54.360Z,24.77
2023-01-15T00:37:25.940Z,25.02
2023-01-15T00:37:57.594Z,25.05
2023-01-15T00:38:29.184Z,26.40
2023-01-15T00:39:01.605Z,26.08
2023-01-15T00:39:34.677Z,25.63
2023-01-15T00:40:06.528Z,25.75
2023-01-15T00:40:38.080Z,25.17
2023-01-15T00:41:09.676Z,25.00
2023-01-15T00:41:41.273Z,24.45
2023-01-15T00:42:13.396Z,23.90
2023-01-15T00:42:54.407Z,23.35
2023-01-15T00:43:26.364Z,23.50
2023-01-15T00:43:57.956Z,22.67
2023-01-15T00:44:29.608Z,22.70
2023-01-15T00:45:08.319Z,23.00
2023-01-15T00:45:40.035Z,22.92
2023-01-15T00:46:11.675Z,23.63
2023-01-15T00:46:43.395Z,23.80
2023-01-15T00:47:15.325Z,23.38
2023-01-15T00:47:48.872Z,22.73
2023-01-15T00:48:20.524Z,22.75
2023-01-15T00:48:52.156Z,23.23
2023-01-15T00:49:23.773Z,24.08
2023-01-15T00:49:55.352Z,23.33
2023-01-15T00:50:27.003Z,22.75
2023-01-15T00:50:58.572Z,25.20
2023-01-15T00:51:30.220Z,25.13
2023-01-15T00:52:01.785Z,24.38
2023-01-15T00:52:33.412Z,23.80
2023-01-15T00:53:05.009Z,25.17
2023-01-15T00:53:36.566Z,24.90
2023-01-15T00:54:08.162Z,24.05
2023-01-15T00:54:39.809Z,23.50
2023-01-15T00:55:11.444Z,26.80
2023-01-15T00:55:43.891Z,25.48
2023-01-15T00:56:15.515Z,24.48
2023-01-15T00:56:47.119Z,25.02
2023-01-15T00:57:18.789Z,24.67
2023-01-15T00:57:50.383Z,25.45
2023-01-15T00:58:22.214Z,25.45
2023-01-15T00:58:53.834Z,26.70
2023-01-15T00:59:25.453Z,26.00
2023-01-15T00:59:57.007Z,25.15
2023-01-15T01:00:28.570Z,24.63
2023-01-15T01:01:03.603Z,25.77
2023-01-15T01:01:35.574Z,25.70
2023-01-15T01:02:07.484Z,25.30
2023-01-15T01:02:39.151Z,25.10
2023-01-15T01:03:10.898Z,25.25
2023-01-15T01:03:42.494Z,24.58
2023-01-15T01:04:14.194Z,25.23
2023-01-15T01:04:46.097Z,24.85
2023-01-15T01:05:17.651Z,24.58
2023-01-15T01:05:49.304Z,23.98
2023-01-15T01:06:21.492Z,25.25
2023-01-15T01:06:53.087Z,24.23
2023-01-15T01:07:24.656Z,24.58
2023-01-15T01:07:56.245Z,24.60
2023-01-15T01:08:28.186Z,24.38
2023-01-15T01:08:59.736Z,23.52
2023-01-15T01:09:31.356Z,24.55
2023-01-15T01:10:02.955Z,24.10
2023-01-15T01:10:34.543Z,24.08
2023-01-15T01:11:08.931Z,23.58
2023-01-15T01:11:40.974Z,21.90
2023-01-15T01:12:12.657Z,22.33
2023-01-15T01:12:44.225Z,21.98
2023-01-15T01:13:15.878Z,23.27
2023-01-15T01:13:49.112Z,22.77
2023-01-15T01:14:20.754Z,22.63
2023-01-15T01:14:52.307Z,21.98
2023-01-15T01:15:25.829Z,22.52
2023-01-15T01:15:58.359Z,22.30
2023-01-15T01:16:38.493Z,20.23
2023-01-15T01:17:10.112Z,21.98
2023-01-15T01:17:41.769Z,20.70
2023-01-15T01:18:13.325Z,21.85
2023-01-15T01:18:44.901Z,22.08
2023-01-15T01:19:19.759Z,22.58
2023-01-15T01:19:51.357Z,22.30
2023-01-15T01:20:22.957Z,21.65
2023-01-15T01:20:55.208Z,21.38
2023-01-15T01:21:27.775Z,21.80
2023-01-15T01:21:59.341Z,21.17
2023-01-15T01:22:33.520Z,22.23
2023-01-15T01:23:05.121Z,21.27
2023-01-15T01:23:36.747Z,21.10
2023-01-15T01:24:10.595Z,21.05
2023-01-15T01:24:42.164Z,20.60
2023-01-15T01:25:13.712Z,20.67
2023-01-15T01:25:45.834Z,21.02
2023-01-15T01:26:17.520Z,20.70
2023-01-15T01:26:52.811Z,21.13
2023-01-15T01:27:25.834Z,21.75
2023-01-15T01:27:57.445Z,21.65
2023-01-15T01:28:29.066Z,21.58
2023-01-15T01:29:00.699Z,22.20
2023-01-15T01:29:32.334Z,22.50
2023-01-15T01:30:04.282Z,21.38
2023-01-15T01:30:38.259Z,21.42
2023-01-15T01:31:10.394Z,21.52
2023-01-15T01:31:42.335Z,21.30
2023-01-15T01:32:14.077Z,22.00
2023-01-15T01:32:46.297Z,21.65
2023-01-15T01:33:17.869Z,21.25
2023-01-15T01:33:53.578Z,21.02
2023-01-15T01:34:25.140Z,21.45
2023-01-15T01:34:56.736Z,21.27
2023-01-15T01:35:28.320Z,21.13
2023-01-15T01:36:00.324Z,21.38
2023-01-15T01:36:34.634Z,20.40
2023-01-15T01:37:06.258Z,20.38
2023-01-15T01:37:37.872Z,20.27
2023-01-15T01:38:09.468Z,20.25
2023-01-15T01:38:41.328Z,20.30
2023-01-15T01:39:16.684Z,20.83
2023-01-15T01:39:48.937Z,21.48
2023-01-15T01:40:20.612Z,21.23
2023-01-15T01:40:52.772Z,20.30
2023-01-15T01:41:24.942Z,20.50
2023-01-15T01:41:56.508Z,19.05
2023-01-15T01:42:28.168Z,19.77
2023-01-15T01:42:59.744Z,20.85
2023-01-15T01:43:31.392Z,21.23
2023-01-15T01:44:11.590Z,19.50
2023-01-15T01:44:43.752Z,19.48
2023-01-15T01:45:32.711Z,18.85
2023-01-15T01:46:04.468Z,17.80
2023-01-15T01:46:36.851Z,18.60
2023-01-15T01:47:15.529Z,18.80
2023-01-15T01:47:47.655Z,18.05
2023-01-15T01:48:24.952Z,19.33
2023-01-15T01:49:06.600Z,19.50
2023-01-15T01:49:40.309Z,18.63
2023-01-15T01:50:13.842Z,18.48
2023-01-15T01:50:47.528Z,18.88
2023-01-15T01:51:22.369Z,18.63
2023-01-15T01:52:03.168Z,18.23
2023-01-15T01:52:43.309Z,18.17
2023-01-15T01:53:20.091Z,20.38
2023-01-15T01:53:51.906Z,18.63
2023-01-15T01:54:27.046Z,19.58
2023-01-15T01:55:00.199Z,18.10
2023-01-15T01:55:34.643Z,18.63
2023-01-15T01:56:09.783Z,18.52
2023-01-15T01:56:41.913Z,18.83
2023-01-15T01:57:14.883Z,17.90
2023-01-15T01:57:48.035Z,18.27
2023-01-15T01:58:22.001Z,17.48
2023-01-15T01:58:55.461Z,18.83
2023-01-15T01:59:27.277Z,18.52
2023-01-15T02:00:00.888Z,18.45
2023-01-15T02:01:13.190Z,18.88
2023-01-15T02:01:45.032Z,17.92
2023-01-15T02:02:21.684Z,19.40
2023-01-15T02:02:54.492Z,18.60
2023-01-15T02:03:31.350Z,18.52
2023-01-15T02:04:06.563Z,19.10
2023-01-15T02:04:39.127Z,18.52
2023-01-15T02:05:20.764Z,18.60
2023-01-15T02:05:57.744Z,18.45
2023-01-15T02:06:29.690Z,18.63
2023-01-15T02:07:03.491Z,19.08
2023-01-15T02:07:35.552Z,19.55
2023-01-15T02:08:07.647Z,18.75
2023-01-15T02:08:39.521Z,19.45
2023-01-15T02:09:11.268Z,19.80
2023-01-15T02:09:42.919Z,19.23
2023-01-15T02:10:16.606Z,19.13
2023-01-15T02:10:52.714Z,19.73
2023-01-15T02:11:24.842Z,19.45
2023-01-15T02:12:02.461Z,17.83
2023-01-15T02:12:39.581Z,19.73
2023-01-15T02:13:16.381Z,17.45
2023-01-15T02:14:04.406Z,18.55
2023-01-15T02:15:03.123Z,17.92
2023-01-15T02:15:40.590Z,17.80
2023-01-15T02:16:28.291Z,18.63
2023-01-15T02:17:44.663Z,17.98
2023-01-15T02:18:51.048Z,16.38
2023-01-15T02:19:59.039Z,17.05
2023-01-15T02:21:01.674Z,16.33
2023-01-15T02:22:14.424Z,17.23
2023-01-15T02:23:02.243Z,15.82
2023-01-15T02:24:03.329Z,17.30
2023-01-15T02:24:51.621Z,16.92
2023-01-15T02:25:33.972Z,17.83
2023-01-15T02:26:36.147Z,17.80
2023-01-15T02:27:26.703Z,17.13
2023-01-15T02:28:04.448Z,17.42
2023-01-15T02:28:42.316Z,17.90
2023-01-15T02:29:19.797Z,18.00
2023-01-15T02:30:12.052Z,18.00
2023-01-15T02:30:49.286Z,18.48
2023-01-15T02:31:37.886Z,18.40
2023-01-15T02:32:15.180Z,17.23
2023-01-15T02:32:53.963Z,18.17
2023-01-15T02:33:40.275Z,17.00
2023-01-15T02:34:27.527Z,17.67
2023-01-15T02:35:06.119Z,17.23
2023-01-15T02:35:46.036Z,17.67
2023-01-15T02:36:19.756Z,18.90
2023-01-15T02:37:03.369Z,17.95
2023-01-15T02:37:39.131Z,17.50
2023-01-15T02:38:15.204Z,17.83
2023-01-15T02:38:50.752Z,17.98
2023-01-15T02:39:23.625Z,19.05
2023-01-15T02:39:57.869Z,18.30
2023-01-15T02:40:31.414Z,18.67
2023-01-15T02:41:05.520Z,19.30
2023-01-15T02:41:44.330Z,18.23
2023-01-15T02:42:17.803Z,19.13
2023-01-15T02:42:50.515Z,18.10
2023-01-15T02:43:24.095Z,18.65
2023-01-15T02:43:57.748Z,18.77
2023-01-15T02:44:31.212Z,18.92
2023-01-15T02:45:05.641Z,19.50
2023-01-15T02:45:41.742Z,17.90
2023-01-15T02:46:15.267Z,18.60
2023-01-15T02:46:48.769Z,18.83
2023-01-15T02:47:26.154Z,18.42
2023-01-15T02:48:04.307Z,18.00
2023-01-15T02:48:39.315Z,18.13
2023-01-15T02:49:15.050Z,17.80
2023-01-15T02:49:47.979Z,18.10
2023-01-15T02:50:25.363Z,18.42
2023-01-15T02:51:04.120Z,17.77
2023-01-15T02:51:49.075Z,17.60
2023-01-15T02:52:25.729Z,18.40
2023-01-15T02:53:05.729Z,17.55
2023-01-15T02:53:41.570Z,17.02
2023-01-15T02:54:16.524Z,17.67
2023-01-15T02:54:54.850Z,18.15
2023-01-15T02:55:31.159Z,18.13
2023-01-15T02:56:08.559Z,17.63
2023-01-15T02:56:42.826Z,16.83
2023-01-15T02:57:16.937Z,18.63
2023-01-15T02:57:53.097Z,17.70
2023-01-15T02:58:32.392Z,17.05
2023-01-15T02:59:10.251Z,17.13
2023-01-15T02:59:48.062Z,16.80
2023-01-15T03:00:22.851Z,17.45
2023-01-15T03:00:56.677Z,17.33
2023-01-15T03:01:32.828Z,16.95
2023-01-15T03:02:11.517Z,17.85
2023-01-15T03:02:50.135Z,17.33
2023-01-15T03:04:03.209Z,18.02
2023-01-15T03:05:03.180Z,15.73
2023-01-15T03:05:48.688Z,15.25
2023-01-15T03:06:35.104Z,17.13
2023-01-15T03:07:38.266Z,16.30
2023-01-15T03:08:11.296Z,15.77
2023-01-15T03:08:43.228Z,17.10
2023-01-15T03:09:16.118Z,17.70
2023-01-15T03:09:49.061Z,17.98
2023-01-15T03:10:30.886Z,16.95
2023-01-15T03:11:09.521Z,17.50
2023-01-15T03:12:08.112Z,18.08
2023-01-15T03:13:02.958Z,16.60
2023-01-15T03:14:04.133Z,16.23
2023-01-15T03:14:42.188Z,16.38
2023-01-15T03:15:40.441Z,16.98
2023-01-15T03:16:38.295Z,16.55
2023-01-15T03:17:21.668Z,16.67
2023-01-15T03:17:55.918Z,14.98
2023-01-15T03:18:30.406Z,17.20
2023-01-15T03:19:20.087Z,15.95
2023-01-15T03:19:58.403Z,16.92
2023-01-15T03:20:30.481Z,16.95
2023-01-15T03:21:07.459Z,17.00
2023-01-15T03:22:08.860Z,17.80
2023-01-15T03:22:46.174Z,16.17
2023-01-15T03:23:23.677Z,16.65
2023-01-15T03:23:56.546Z,17.02
2023-01-15T03:25:04.691Z,16.92
2023-01-15T03:25:47.936Z,15.52
2023-01-15T03:26:19.837Z,15.50
2023-01-15T03:26:52.804Z,16.23
2023-01-15T03:27:24.510Z,16.63
2023-01-15T03:27:59.712Z,16.65
2023-01-15T03:28:35.168Z,16.98
2023-01-15T03:29:09.151Z,16.27
2023-01-15T03:29:45.900Z,15.57
2023-01-15T03:30:20.156Z,16.23
2023-01-15T03:30:52.070Z,16.17
2023-01-15T03:31:23.703Z,16.80
2023-01-15T03:31:55.693Z,16.63
2023-01-15T03:32:28.672Z,17.85
2023-01-15T03:33:00.404Z,16.45
2023-01-15T03:33:32.174Z,16.60
2023-01-15T03:34:04.510Z,17.67
2023-01-15T03:34:50.021Z,16.90
2023-01-15T03:35:48.200Z,16.60
2023-01-15T03:36:19.744Z,16.00
2023-01-15T03:36:51.346Z,16.05
2023-01-15T03:37:25.683Z,17.08
2023-01-15T03:37:57.271Z,17.17
2023-01-15T03:38:32.645Z,17.05
2023-01-15T03:39:04.886Z,16.90
2023-01-15T03:39:36.763Z,17.95
2023-01-15T03:40:09.084Z,16.25
2023-01-15T03:40:50.843Z,16.80
2023-01-15T03:41:47.631Z,16.45
2023-01-15T03:42:50.413Z,15.48
2023-01-15T03:43:54.416Z,15.63
2023-01-15T03:44:50.861Z,14.77
2023-01-15T03:45:33.114Z,14.68
2023-01-15T03:46:19.880Z,15.75
2023-01-15T03:47:06.444Z,15.75
2023-01-15T03:48:11.427Z,15.07
2023-01-15T03:49:01.219Z,14.32
2023-01-15T03:49:42.599Z,14.45
2023-01-15T03:50:35.711Z,15.93
2023-01-15T03:51:18.629Z,15.35
2023-01-15T03:52:01.078Z,16.63
2023-01-15T03:53:01.018Z,15.18
2023-01-15T03:53:48.576Z,14.95
2023-01-15T03:54:26.620Z,16.00
2023-01-15T03:55:05.084Z,15.68
2023-01-15T03:55:42.265Z,16.65
2023-01-15T03:56:41.468Z,16.52
2023-01-15T03:57:37.899Z,15.70
2023-01-15T03:58:29.871Z,15.63
2023-01-15T03:59:18.788Z,15.57
2023-01-15T03:59:57.400Z,15.10
2023-01-15T04:00:41.910Z,16.55
2023-01-15T04:01:18.565Z,16.45
2023-01-15T04:01:51.819Z,15.95
2023-01-15T04:02:24.754Z,16.00
2023-01-15T04:02:59.602Z,16.30
2023-01-15T04:03:34.212Z,17.08
2023-01-15T04:04:06.776Z,17.08
2023-01-15T04:04:40.264Z,15.45
2023-01-15T04:05:12.632Z,15.93
2023-01-15T04:05:44.687Z,16.35
2023-01-15T04:06:17.392Z,15.77
2023-01-15T04:06:49.084Z,17.63
2023-01-15T04:07:21.804Z,15.45
2023-01-15T04:07:54.955Z,16.38
2023-01-15T04:08:31.223Z,16.27
2023-01-15T04:09:06.430Z,16.38
2023-01-15T04:09:40.344Z,15.70
2023-01-15T04:10:11.946Z,16.08
2023-01-15T04:10:54.023Z,15.43
2023-01-15T04:11:26.816Z,16.05
2023-01-15T04:12:00.221Z,16.05
2023-01-15T04:12:34.106Z,16.23
2023-01-15T04:13:06.690Z,15.48
2023-01-15T04:13:38.331Z,16.88
2023-01-15T04:14:13.770Z,16.23
2023-01-15T04:14:45.563Z,15.52
2023-01-15T04:15:17.416Z,14.70
2023-01-15T04:15:49.456Z,15.90
2023-01-15T04:16:32.893Z,15.30
2023-01-15T04:17:04.444Z,15.45
2023-01-15T04:17:36.013Z,15.90
2023-01-15T04:18:07.596Z,15.70
2023-01-15T04:18:39.123Z,15.80
2023-01-15T04:19:10.737Z,15.70
2023-01-15T04:19:44.295Z,15.40
2023-01-15T04:20:16.100Z,15.70
2023-01-15T04:20:48.060Z,15.60
2023-01-15T04:21:19.854Z,16.38
2023-01-15T04:21:51.429Z,15.55
2023-01-15T04:22:23.076Z,15.05
2023-01-15T04:22:54.623Z,15.85
2023-01-15T04:23:26.205Z,15.80
2023-01-15T04:23:57.814Z,16.45
2023-01-15T04:24:29.552Z,15.20
2023-01-15T04:25:01.115Z,14.65
2023-01-15T04:25:32.764Z,15.20
2023-01-15T04:26:04.416Z,15.13
2023-01-15T04:26:35.972Z,15.25
2023-01-15T04:27:07.602Z,16.30
2023-01-15T04:27:39.264Z,15.07
2023-01-15T04:28:11.090Z,15.23
2023-01-15T04:28:42.949Z,16.63
2023-01-15T04:29:14.558Z,15.77
2023-01-15T04:29:46.164Z,15.75
2023-01-15T04:30:19.422Z,17.00
2023-01-15T04:30:51.044Z,16.17
2023-01-15T04:31:22.773Z,15.52
2023-01-15T04:31:57.711Z,14.60
2023-01-15T04:32:29.454Z,15.15
2023-01-15T04:33:01.068Z,16.15
2023-01-15T04:33:32.695Z,15.23
2023-01-15T04:34:04.914Z,16.00
2023-01-15T04:34:36.621Z,15.90
2023-01-15T04:35:08.449Z,15.77
2023-01-15T04:35:40.001Z,15.55
2023-01-15T04:36:11.663Z,16.13
2023-01-15T04:36:46.606Z,16.50
2023-01-15T04:37:19.527Z,15.82
2023-01-15T04:37:57.872Z,15.68
2023-01-15T04:38:29.685Z,15.80
2023-01-15T04:39:05.199Z,15.43
2023-01-15T04:39:36.762Z,15.27
2023-01-15T04:40:09.757Z,15.32
2023-01-15T04:40:59.989Z,16.63
2023-01-15T04:41:50.357Z,14.93
2023-01-15T04:42:40.468Z,15.45
2023-01-15T04:43:34.395Z,14.73
2023-01-15T04:44:08.617Z,15.30
2023-01-15T04:44:40.190Z,15.65
2023-01-15T04:45:11.841Z,15.30
2023-01-15T04:45:44.444Z,16.23
2023-01-15T04:46:16.078Z,15.73
2023-01-15T04:46:48.747Z,14.82
2023-01-15T04:47:20.350Z,14.95
2023-01-15T04:47:51.905Z,15.15
2023-01-15T04:48:23.916Z,16.48
2023-01-15T04:48:55.509Z,15.32
2023-01-15T04:49:27.522Z,15.45
2023-01-15T04:49:59.118Z,15.38
2023-01-15T04:50:30.728Z,15.43
2023-01-15T04:51:04.454Z,16.33
2023-01-15T04:51:36.152Z,15.45
2023-01-15T04:52:07.758Z,16.65
2023-01-15T04:52:39.344Z,15.77
2023-01-15T04:53:11.017Z,15.88
2023-01-15T04:53:42.837Z,15.40
2023-01-15T04:54:16.020Z,16.10
2023-01-15T04:54:47.631Z,15.75
2023-01-15T04:55:19.188Z,15.23
2023-01-15T04:55:50.781Z,15.88
2023-01-15T04:56:22.429Z,15.48
2023-01-15T04:56:55.150Z,16.02
2023-01-15T04:57:26.708Z,16.33
2023-01-15T04:57:58.310Z,15.73
2023-01-15T04:58:30.712Z,16.48
2023-01-15T04:59:02.696Z,15.40
2023-01-15T04:59:34.408Z,17.08
2023-01-15T05:00:06.745Z,16.23
2023-01-15T05:00:38.381Z,16.00
2023-01-15T05:01:12.279Z,16.55
2023-01-15T05:01:58.052Z,15.50
2023-01-15T05:02:34.663Z,16.70
2023-01-15T05:03:06.267Z,15.40
2023-01-15T05:03:37.839Z,15.90
2023-01-15T05:04:09.530Z,16.10
2023-01-15T05:04:41.238Z,15.82
2023-01-15T05:05:12.851Z,15.23
2023-01-15T05:05:44.427Z,15.32
2023-01-15T05:06:17.698Z,16.70
2023-01-15T05:06:49.408Z,16.15
2023-01-15T05:07:21.037Z,15.38
2023-01-15T05:07:52.572Z,15.15
2023-01-15T05:08:24.190Z,15.13
2023-01-15T05:08:55.740Z,15.50
2023-01-15T05:09:27.331Z,15.40
2023-01-15T05:09:58.963Z,15.48
2023-01-15T05:10:30.629Z,16.02
2023-01-15T05:11:06.693Z,16.25
2023-01-15T05:11:40.718Z,14.65
2023-01-15T05:12:12.387Z,15.40
2023-01-15T05:12:43.937Z,16.20
2023-01-15T05:13:15.519Z,15.02
2023-01-15T05:13:47.154Z,15.48
2023-01-15T05:14:18.850Z,16.60
2023-01-15T05:14:50.439Z,15.63
2023-01-15T05:15:22.051Z,16.08
2023-01-15T05:15:53.709Z,16.05
2023-01-15T05:16:27.541Z,15.18
2023-01-15T05:16:59.123Z,14.63
2023-01-15T05:17:32.811Z,15.93
2023-01-15T05:18:04.875Z,14.95
2023-01-15T05:18:36.561Z,16.25
2023-01-15T05:19:08.208Z,15.25
2023-01-15T05:19:39.947Z,15.65
2023-01-15T05:20:11.955Z,15.68
2023-01-15T05:20:43.784Z,15.73
2023-01-15T05:21:18.407Z,15.32
2023-01-15T05:21:50.023Z,15.43
2023-01-15T05:22:21.587Z,15.32
2023-01-15T05:22:53.161Z,16.08
2023-01-15T05:23:24.704Z,15.20
2023-01-15T05:24:00.599Z,15.27
2023-01-15T05:24:32.234Z,15.60
2023-01-15T05:25:04.361Z,15.18
2023-01-15T05:25:39.129Z,15.27
2023-01-15T05:26:11.224Z,15.15
2023-01-15T05:26:43.189Z,15.90
2023-01-15T05:27:14.811Z,15.25
2023-01-15T05:27:46.383Z,15.93
2023-01-15T05:28:19.359Z,16.20
2023-01-15T05:28:54.609Z,15.95
2023-01-15T05:29:26.161Z,16.27
2023-01-15T05:29:57.744Z,16.05
2023-01-15T05:30:29.450Z,14.90
2023-01-15T05:31:10.146Z,16.25
2023-01-15T05:31:42.862Z,14.98
2023-01-15T05:32:14.459Z,15.15
2023-01-15T05:32:46.039Z,16.38
2023-01-15T05:33:17.685Z,15.77
2023-01-15T05:33:50.151Z,15.55
2023-01-15T05:34:21.756Z,15.82
2023-01-15T05:34:53.335Z,15.48
2023-01-15T05:35:24.853Z,15.43
2023-01-15T05:36:01.542Z,15.25
2023-01-15T05:36:33.236Z,14.75
2023-01-15T05:37:04.777Z,15.38
2023-01-15T05:37:36.367Z,16.15
2023-01-15T05:38:08.019Z,14.95
2023-01-15T05:38:40.468Z,15.52
2023-01-15T05:39:12.141Z,15.43
2023-01-15T05:39:43.748Z,16.08
2023-01-15T05:40:15.474Z,15.27
2023-01-15T05:40:47.046Z,15.57
2023-01-15T05:41:38.885Z,16.40
2023-01-15T05:42:10.476Z,15.27
2023-01-15T05:42:42.023Z,14.05
2023-01-15T05:43:13.565Z,14.98
2023-01-15T05:43:45.126Z,15.60
2023-01-15T05:44:25.293Z,14.85
2023-01-15T05:44:56.948Z,15.55
2023-01-15T05:45:28.557Z,14.75
2023-01-15T05:46:02.462Z,15.45
2023-01-15T05:46:36.039Z,14.63
2023-01-15T05:47:07.923Z,15.75
2023-01-15T05:47:39.585Z,15.88
2023-01-15T05:48:11.184Z,14.98
2023-01-15T05:48:42.786Z,15.25
2023-01-15T05:49:17.686Z,15.50
2023-01-15T05:49:50.290Z,14.75
2023-01-15T05:50:21.955Z,15.65
2023-01-15T05:50:53.493Z,15.27
2023-01-15T05:51:25.073Z,15.30
2023-01-15T05:51:58.090Z,16.48
2023-01-15T05:52:29.734Z,15.20
2023-01-15T05:53:01.324Z,15.98
2023-01-15T05:53:34.931Z,15.38
2023-01-15T05:54:08.855Z,15.35
2023-01-15T05:54:40.452Z,15.18
2023-01-15T05:55:12.043Z,15.60
2023-01-15T05:55:43.593Z,16.92
2023-01-15T05:56:15.180Z,16.25
2023-01-15T05:56:47.837Z,15.57
2023-01-15T05:57:19.750Z,15.48
2023-01-15T05:57:51.332Z,14.60
2023-01-15T05:58:22.916Z,15.85
2023-01-15T05:58:54.884Z,15.77
2023-01-15T05:59:28.295Z,15.45
2023-01-15T05:59:59.889Z,16.02
2023-01-15T06:00:31.505Z,15.25
2023-01-15T06:01:10.371Z,15.57
2023-01-15T06:01:41.996Z,15.52
2023-01-15T06:02:13.561Z,14.98
2023-01-15T06:02:49.133Z,15.75
2023-01-15T06:03:24.777Z,15.63
2023-01-15T06:04:00.741Z,15.73
2023-01-15T06:04:32.469Z,15.48
2023-01-15T06:05:05.882Z,16.42
2023-01-15T06:05:37.471Z,16.55
2023-01-15T06:06:14.282Z,16.17
2023-01-15T06:06:45.862Z,16.33
2023-01-15T06:07:18.271Z,15.82
2023-01-15T06:07:52.790Z,16.50
2023-01-15T06:08:24.400Z,15.00
2023-01-15T06:08:56.456Z,15.52
2023-01-15T06:09:29.520Z,15.18
2023-01-15T06:10:01.232Z,16.90
2023-01-15T06:10:32.810Z,15.70
2023-01-15T06:11:07.067Z,16.35
2023-01-15T06:11:38.700Z,15.13
2023-01-15T06:12:10.282Z,16.25
2023-01-15T06:12:42.046Z,15.55
2023-01-15T06:13:14.732Z,16.67
2023-01-15T06:13:46.334Z,16.77
2023-01-15T06:14:18.052Z,15.35
2023-01-15T06:14:49.655Z,16.02
2023-01-15T06:15:21.239Z,16.50
2023-01-15T06:15:52.887Z,16.25
2023-01-15T06:16:24.529Z,16.58
2023-01-15T06:16:56.140Z,16.27
2023-01-15T06:17:27.734Z,15.85
2023-01-15T06:17:59.276Z,16.88
2023-01-15T06:18:30.912Z,16.40
2023-01-15T06:19:04.362Z,16.98
2023-01-15T06:19:36.025Z,17.00
2023-01-15T06:20:08.779Z,16.25
2023-01-15T06:20:43.059Z,15.35
2023-01-15T06:21:15.717Z,16.40
2023-01-15T06:21:47.427Z,17.05
2023-01-15T06:22:19.011Z,16.38
2023-01-15T06:22:50.656Z,15.63
2023-01-15T06:23:22.317Z,17.02
2023-01-15T06:23:54.423Z,17.17
2023-01-15T06:24:25.980Z,15.40
2023-01-15T06:24:57.551Z,17.83
2023-01-15T06:25:29.142Z,16.40
2023-01-15T06:26:02.144Z,16.38
2023-01-15T06:26:33.794Z,16.58
2023-01-15T06:27:05.412Z,16.83
2023-01-15T06:27:37.049Z,16.75
2023-01-15T06:28:08.991Z,16.95
2023-01-15T06:28:40.762Z,16.48
2023-01-15T06:29:13.432Z,16.92
2023-01-15T06:29:44.980Z,16.52
2023-01-15T06:30:17.071Z,16.27
2023-01-15T06:30:48.656Z,16.10
2023-01-15T06:31:22.686Z,15.63
2023-01-15T06:31:54.344Z,16.52
2023-01-15T06:32:26.209Z,15.90
2023-01-15T06:32:57.885Z,17.17
2023-01-15T06:33:29.475Z,16.58
2023-01-15T06:34:01.132Z,15.95
2023-01-15T06:34:32.737Z,16.17
2023-01-15T06:35:04.536Z,15.80
2023-01-15T06:35:36.138Z,15.75
2023-01-15T06:36:11.166Z,16.00
2023-01-15T06:36:42.735Z,16.80
2023-01-15T06:37:14.281Z,15.25
2023-01-15T06:37:46.016Z,16.00
2023-01-15T06:38:17.697Z,16.58
2023-01-15T06:38:50.293Z,15.93
2023-01-15T06:39:22.013Z,16.35
2023-01-15T06:39:53.561Z,17.52
2023-01-15T06:40:27.048Z,16.10
2023-01-15T06:41:00.329Z,17.33
2023-01-15T06:41:50.767Z,15.40
2023-01-15T06:42:41.213Z,15.02
2023-01-15T06:43:31.901Z,15.98
2023-01-15T06:44:22.350Z,15.95
2023-01-15T06:45:12.188Z,14.32
2023-01-15T06:46:02.593Z,14.63
2023-01-15T06:47:01.217Z,14.90
2023-01-15T06:47:32.839Z,15.45
2023-01-15T06:48:04.536Z,16.13
2023-01-15T06:48:36.129Z,16.73
2023-01-15T06:49:07.667Z,16.70
2023-01-15T06:49:39.750Z,17.48
2023-01-15T06:50:11.629Z,16.73
2023-01-15T06:50:43.920Z,17.95
2023-01-15T06:51:19.459Z,16.80
2023-01-15T06:51:51.010Z,17.60
2023-01-15T06:52:24.714Z,17.38
2023-01-15T06:52:56.282Z,17.73
2023-01-15T06:53:27.875Z,17.70
2023-01-15T06:53:59.444Z,17.05
2023-01-15T06:54:31.157Z,15.43
2023-01-15T06:55:02.881Z,16.67
2023-01-15T06:55:34.479Z,17.85
2023-01-15T06:56:06.381Z,17.42
2023-01-15T06:56:37.964Z,16.95
2023-01-15T06:57:09.522Z,17.40
2023-01-15T06:57:41.514Z,17.70
2023-01-15T06:58:13.322Z,17.58
2023-01-15T06:58:45.050Z,17.30
2023-01-15T06:59:16.916Z,17.23
2023-01-15T06:59:49.341Z,16.55
2023-01-15T07:00:21.173Z,17.63
2023-01-15T07:00:56.661Z,17.33
2023-01-15T07:01:30.963Z,17.35
2023-01-15T07:02:02.613Z,18.08
2023-01-15T07:02:34.716Z,17.88
2023-01-15T07:03:06.341Z,18.05
2023-01-15T07:03:38.023Z,17.45
2023-01-15T07:04:09.779Z,17.50
2023-01-15T07:04:41.476Z,17.30
2023-01-15T07:05:13.179Z,17.27
2023-01-15T07:05:44.729Z,17.40
2023-01-15T07:06:16.325Z,18.73
2023-01-15T07:06:47.932Z,17.70
2023-01-15T07:07:20.933Z,18.27
2023-01-15T07:07:52.685Z,18.15
2023-01-15T07:08:24.300Z,17.65
2023-01-15T07:08:55.896Z,17.58
2023-01-15T07:09:27.483Z,17.08
2023-01-15T07:09:59.026Z,17.85
2023-01-15T07:10:30.669Z,17.80
2023-01-15T07:11:08.154Z,18.15
2023-01-15T07:11:49.701Z,17.85
2023-01-15T07:12:22.688Z,17.77
2023-01-15T07:12:54.277Z,18.00
2023-01-15T07:13:25.873Z,17.20
2023-01-15T07:14:06.325Z,17.73
2023-01-15T07:14:37.943Z,16.88
2023-01-15T07:15:10.159Z,17.83
2023-01-15T07:15:42.079Z,18.00
2023-01-15T07:16:28.598Z,17.88
2023-01-15T07:17:00.406Z,21.40
2023-01-15T07:17:31.997Z,20.08
2023-01-15T07:18:05.324Z,18.40
2023-01-15T07:18:36.941Z,17.83
2023-01-15T07:19:09.349Z,17.88
2023-01-15T07:19:41.011Z,18.65
2023-01-15T07:20:12.972Z,18.25
2023-01-15T07:20:44.575Z,18.23
2023-01-15T07:21:16.124Z,18.65
2023-01-15T07:21:47.864Z,19.20
2023-01-15T07:22:19.479Z,18.88
2023-01-15T07:22:54.070Z,19.33
2023-01-15T07:23:27.203Z,18.70
2023-01-15T07:23:59.674Z,19.23
2023-01-15T07:24:31.379Z,18.45
2023-01-15T07:25:03.183Z,18.13
2023-01-15T07:25:35.332Z,19.67
2023-01-15T07:26:06.915Z,19.42
2023-01-15T07:26:39.094Z,19.85
2023-01-15T07:27:10.742Z,18.50
2023-01-15T07:27:42.392Z,19.42
2023-01-15T07:28:13.934Z,19.60
2023-01-15T07:28:45.519Z,20.48
2023-01-15T07:29:17.243Z,19.55
2023-01-15T07:29:49.856Z,22.42
2023-01-15T07:30:21.588Z,23.20
2023-01-15T07:30:53.172Z,24.55